createdAt,value
2023-05-03T00:01:32.065Z,37027.31
2023-05-03T00:03:58.537Z,37027.31
2023-05-03T00:06:25.486Z,37039.28
2023-05-03T00:08:52.011Z,37063.22
2023-05-03T00:11:18.369Z,37079.16
2023-05-03T00:13:44.795Z,37063.22
2023-05-03T00:16:11.192Z,37083.16
2023-05-03T00:18:37.612Z,37111.06
2023-05-03T00:21:04.284Z,37105.06
2023-05-03T00:23:30.736Z,37109.06
2023-05-03T00:25:58.547Z,37129.00
2023-05-03T00:28:25.985Z,37123.00
2023-05-03T00:30:53.272Z,37131.00
2023-05-03T00:33:20.082Z,37148.94
2023-05-03T00:35:46.595Z,37142.94
2023-05-03T00:38:15.988Z,37168.88
2023-05-03T00:40:43.126Z,37198.78
2023-05-03T00:43:12.417Z,37192.78
2023-05-03T00:45:38.861Z,37198.78
2023-05-03T00:48:06.182Z,37184.81
2023-05-03T00:50:32.682Z,37222.69
2023-05-03T00:52:59.201Z,37222.69
2023-05-03T00:55:29.374Z,37236.66
2023-05-03T00:57:55.927Z,37258.56
2023-05-03T01:00:23.289Z,37266.56
2023-05-03T01:02:49.804Z,37264.56
2023-05-03T01:05:16.940Z,37272.53
2023-05-03T01:08:18.339Z,37262.56
2023-05-03T01:11:07.440Z,37318.38
2023-05-03T01:13:36.778Z,37316.38
2023-05-03T01:16:14.241Z,37302.44
2023-05-03T01:18:49.163Z,37322.38
2023-05-03T01:21:18.450Z,37330.34
2023-05-03T01:24:03.637Z,37336.31
2023-05-03T01:26:30.142Z,37358.25
2023-05-03T01:28:56.682Z,37366.22
2023-05-03T01:31:44.472Z,37374.22
2023-05-03T01:34:16.899Z,37376.19
2023-05-03T01:36:45.090Z,37430.03
2023-05-03T01:39:20.952Z,37406.09
2023-05-03T01:41:50.837Z,37418.06
2023-05-03T01:44:19.840Z,37418.06
2023-05-03T01:46:47.284Z,37449.97
2023-05-03T01:49:13.981Z,37501.81
2023-05-03T01:51:40.397Z,37453.94
2023-05-03T01:54:06.850Z,37499.81
2023-05-03T01:56:35.590Z,37497.81
2023-05-03T01:59:02.834Z,37513.75
2023-05-03T02:01:29.318Z,37509.78
2023-05-03T02:03:55.740Z,37545.66
2023-05-03T02:06:23.796Z,37557.63
2023-05-03T02:08:50.332Z,37565.59
2023-05-03T02:11:16.760Z,37583.53
2023-05-03T02:13:43.292Z,37601.50
2023-05-03T02:16:09.845Z,37629.41
2023-05-03T02:18:36.757Z,37629.41
2023-05-03T02:21:04.696Z,37665.28
2023-05-03T02:23:31.309Z,37685.22
2023-05-03T02:25:58.045Z,37729.09
2023-05-03T02:28:24.425Z,37713.13
2023-05-03T02:30:50.987Z,37717.13
2023-05-03T02:33:17.480Z,37731.09
2023-05-03T02:35:44.224Z,37764.97
2023-05-03T02:38:11.037Z,37737.06
2023-05-03T02:40:37.464Z,37761.00
2023-05-03T02:43:04.888Z,37792.91
2023-05-03T02:45:31.734Z,37780.94
2023-05-03T02:47:59.279Z,37822.81
2023-05-03T02:50:27.253Z,37848.72
2023-05-03T02:52:53.713Z,37840.75
2023-05-03T02:55:20.765Z,37872.66
2023-05-03T02:57:47.869Z,37898.56
2023-05-03T03:00:18.282Z,37928.47
2023-05-03T03:02:44.794Z,37948.44
2023-05-03T03:05:12.149Z,37940.44
2023-05-03T03:07:40.384Z,37968.38
2023-05-03T03:10:08.149Z,37968.38
2023-05-03T03:12:36.307Z,38010.25
2023-05-03T03:15:06.317Z,38048.13
2023-05-03T03:17:33.510Z,38078.03
2023-05-03T03:20:02.002Z,38103.97
2023-05-03T03:22:28.788Z,38111.94
2023-05-03T03:24:55.230Z,38131.88
2023-05-03T03:27:23.076Z,38271.47
2023-05-03T03:29:49.820Z,38293.41
2023-05-03T03:32:17.172Z,38311.34
2023-05-03T03:34:44.023Z,38343.25
2023-05-03T03:37:11.097Z,38343.25
2023-05-03T03:39:40.798Z,38399.09
2023-05-03T03:42:09.396Z,38415.06
2023-05-03T03:44:35.857Z,38442.97
2023-05-03T03:47:02.753Z,38458.91
2023-05-03T03:49:29.178Z,38466.91
2023-05-03T03:51:56.031Z,38486.84
2023-05-03T03:54:22.425Z,38478.88
2023-05-03T03:56:51.088Z,38502.78
2023-05-03T03:59:17.913Z,38476.88
2023-05-03T04:01:45.914Z,38498.81
2023-05-03T04:04:13.204Z,38536.69
2023-05-03T04:06:40.931Z,38562.63
2023-05-03T04:09:11.211Z,38556.66
2023-05-03T04:11:38.345Z,38538.69
2023-05-03T04:14:05.592Z,38554.66
2023-05-03T04:16:32.755Z,38572.59
2023-05-03T04:19:01.710Z,38582.56
2023-05-03T04:21:28.946Z,38590.56
2023-05-03T04:23:56.765Z,38622.47
2023-05-03T04:26:31.661Z,38646.38
2023-05-03T04:29:06.110Z,38644.41
2023-05-03T04:31:33.313Z,38666.34
2023-05-03T04:34:00.948Z,38700.25
2023-05-03T04:36:29.751Z,38718.19
2023-05-03T04:38:57.816Z,38722.19
2023-05-03T04:41:25.457Z,38710.22
2023-05-03T04:43:53.096Z,38760.06
2023-05-03T04:46:20.307Z,38762.06
2023-05-03T04:48:47.405Z,38813.94
2023-05-03T04:51:14.370Z,38841.84
2023-05-03T04:53:45.193Z,38889.72
2023-05-03T04:56:15.911Z,38905.66
2023-05-03T04:58:44.454Z,38889.72
2023-05-03T05:01:12.172Z,38983.47
2023-05-03T05:03:38.765Z,38981.47
2023-05-03T05:06:12.793Z,39029.34
2023-05-03T05:08:41.542Z,38987.44
2023-05-03T05:11:10.772Z,39041.31
2023-05-03T05:13:39.048Z,39041.31
2023-05-03T05:16:06.058Z,39037.31
2023-05-03T05:18:32.824Z,39091.16
2023-05-03T05:21:02.008Z,39089.19
2023-05-03T05:23:29.269Z,39077.22
2023-05-03T05:26:00.267Z,39093.16
2023-05-03T05:28:29.400Z,39081.19
2023-05-03T05:30:56.002Z,39073.22
2023-05-03T05:33:22.902Z,39089.19
2023-05-03T05:35:49.880Z,39069.22
2023-05-03T05:38:20.001Z,39081.19
2023-05-03T05:40:46.763Z,39049.28
2023-05-03T05:43:13.229Z,39077.22
2023-05-03T05:45:43.046Z,39029.34
2023-05-03T05:48:09.569Z,39057.25
2023-05-03T05:50:36.520Z,39021.34
2023-05-03T05:53:09.608Z,39021.34
2023-05-03T05:55:39.907Z,38993.44
2023-05-03T05:58:07.258Z,38979.47
2023-05-03T06:00:42.314Z,38931.59
2023-05-03T06:03:09.294Z,38913.66
2023-05-03T06:05:36.150Z,38889.72
2023-05-03T06:08:02.733Z,38865.78
2023-05-03T06:10:29.179Z,38857.81
2023-05-03T06:12:57.039Z,38831.88
2023-05-03T06:15:26.142Z,38801.97
2023-05-03T06:17:54.137Z,38768.06
2023-05-03T06:20:20.798Z,38766.06
2023-05-03T06:22:48.495Z,38728.16
2023-05-03T06:25:17.667Z,38702.22
2023-05-03T06:27:47.675Z,38700.25
2023-05-03T06:30:15.168Z,38654.38
2023-05-03T06:32:43.639Z,38654.38
2023-05-03T06:35:12.516Z,38640.41
2023-05-03T06:37:40.433Z,38666.34
2023-05-03T06:40:07.690Z,38638.41
2023-05-03T06:42:36.238Z,38626.44
2023-05-03T06:45:08.132Z,38610.50
2023-05-03T06:47:37.203Z,38590.56
2023-05-03T06:50:04.548Z,38558.63
2023-05-03T06:52:31.860Z,38526.72
2023-05-03T06:54:58.678Z,38536.69
2023-05-03T06:57:27.471Z,38522.75
2023-05-03T06:59:55.214Z,38478.88
2023-05-03T07:02:21.647Z,38478.88
2023-05-03T07:04:48.121Z,38442.97
2023-05-03T07:07:15.808Z,38466.91
2023-05-03T07:09:43.538Z,38472.88
2023-05-03T07:12:11.183Z,38482.84
2023-05-03T07:14:39.171Z,38458.91
2023-05-03T07:17:05.654Z,38431.00
2023-05-03T07:19:32.174Z,38458.91
2023-05-03T07:21:58.910Z,38399.09
2023-05-03T07:24:26.256Z,38395.09
2023-05-03T07:26:53.558Z,38397.09
2023-05-03T07:29:20.521Z,38379.16
2023-05-03T07:31:47.538Z,38353.22
2023-05-03T07:34:14.183Z,38367.19
2023-05-03T07:36:40.690Z,38383.13
2023-05-03T07:39:07.777Z,38367.19
2023-05-03T07:41:34.180Z,38379.16
2023-05-03T07:44:00.777Z,38363.19
2023-05-03T07:46:27.298Z,38379.16
2023-05-03T07:48:53.898Z,38311.34
2023-05-03T07:51:21.128Z,38259.50
2023-05-03T07:53:47.596Z,38255.50
2023-05-03T07:56:14.022Z,38201.66
2023-05-03T07:58:41.062Z,38287.41
2023-05-03T08:01:08.245Z,38247.53
2023-05-03T08:03:35.056Z,38227.59
2023-05-03T08:06:01.748Z,38179.72
2023-05-03T08:08:28.412Z,38173.75
2023-05-03T08:10:54.931Z,38151.81
2023-05-03T08:13:22.538Z,38163.78
2023-05-03T08:15:50.112Z,38171.75
2023-05-03T08:18:16.752Z,38175.75
2023-05-03T08:20:44.831Z,38123.91
2023-05-03T08:23:11.282Z,38159.78
2023-05-03T08:25:37.833Z,38163.78
2023-05-03T08:28:04.467Z,38167.78
2023-05-03T08:30:31.361Z,38171.75
2023-05-03T08:32:57.926Z,38167.78
2023-05-03T08:35:24.387Z,38137.84
2023-05-03T08:37:50.843Z,38111.94
2023-05-03T08:40:17.696Z,38135.88
2023-05-03T08:42:45.546Z,38111.94
2023-05-03T08:45:15.583Z,38099.97
2023-05-03T08:47:45.116Z,38105.94
2023-05-03T08:50:13.173Z,38105.94
2023-05-03T08:52:41.522Z,38143.84
2023-05-03T08:55:09.259Z,38119.91
2023-05-03T08:57:36.079Z,38163.78
2023-05-03T09:00:06.483Z,38201.66
2023-05-03T09:02:34.916Z,38092.00
2023-05-03T09:05:01.868Z,38165.78
2023-05-03T09:07:28.359Z,38111.94
2023-05-03T09:09:54.908Z,38211.63
2023-05-03T09:12:38.425Z,38157.81
2023-05-03T09:15:06.376Z,38203.66
2023-05-03T09:17:33.394Z,38147.81
2023-05-03T09:20:00.468Z,38105.94
2023-05-03T09:22:30.862Z,38139.84
2023-05-03T09:24:59.559Z,38149.81
2023-05-03T09:27:27.017Z,38199.69
2023-05-03T09:29:54.520Z,38221.59
2023-05-03T09:32:22.753Z,38211.63
2023-05-03T09:34:49.195Z,38195.69
2023-05-03T09:37:15.902Z,38179.72
2023-05-03T09:39:45.166Z,38197.69
2023-05-03T09:42:12.888Z,38175.75
2023-05-03T09:44:53.710Z,38167.78
2023-05-03T09:47:21.509Z,38141.84
2023-05-03T09:49:48.034Z,38151.81
2023-05-03T09:52:14.602Z,38111.94
2023-05-03T09:54:42.300Z,38153.81
2023-05-03T09:57:09.194Z,38161.78
2023-05-03T09:59:37.885Z,38167.78
2023-05-03T10:02:07.338Z,38175.75
2023-05-03T10:04:46.839Z,38175.75
2023-05-03T10:07:17.696Z,38187.72
2023-05-03T10:09:46.696Z,38213.63
2023-05-03T10:12:16.656Z,38163.78
2023-05-03T10:14:45.474Z,38163.78
2023-05-03T10:17:32.019Z,38195.69
2023-05-03T10:20:29.934Z,38171.75
2023-05-03T10:23:06.042Z,38175.75
2023-05-03T10:25:34.533Z,38211.63
2023-05-03T10:28:05.894Z,38203.66
2023-05-03T10:30:34.542Z,38163.78
2023-05-03T10:33:13.292Z,38175.75
2023-05-03T10:35:42.046Z,38175.75
2023-05-03T10:38:16.354Z,38207.66
2023-05-03T10:40:44.334Z,38201.66
2023-05-03T10:43:32.151Z,38143.84
2023-05-03T10:45:58.840Z,38171.75
2023-05-03T10:48:26.593Z,38191.69
2023-05-03T10:50:53.110Z,38187.72
2023-05-03T10:53:32.383Z,38205.66
2023-05-03T10:56:16.774Z,38163.78
2023-05-03T10:58:45.890Z,38205.66
2023-05-03T11:01:15.289Z,38167.78
2023-05-03T11:03:50.966Z,38243.53
2023-05-03T11:06:49.414Z,38173.75
2023-05-03T11:09:16.505Z,38207.66
2023-05-03T11:11:43.517Z,38231.59
2023-05-03T11:14:11.669Z,38259.50
2023-05-03T11:16:47.404Z,38299.38
2023-05-03T11:19:15.790Z,38315.34
2023-05-03T11:21:43.333Z,38395.09
2023-05-03T11:24:10.085Z,38435.00
2023-05-03T11:26:40.389Z,38454.94
2023-05-03T11:29:10.578Z,38476.88
2023-05-03T11:31:37.168Z,38397.09
2023-05-03T11:34:03.968Z,38391.13
2023-05-03T11:36:31.040Z,38399.09
2023-05-03T11:38:57.706Z,38367.19
2023-05-03T11:41:24.337Z,38375.16
2023-05-03T11:44:00.643Z,38375.16
2023-05-03T11:46:35.065Z,38411.06
2023-05-03T11:49:03.001Z,38355.22
2023-05-03T11:51:30.132Z,38383.13
2023-05-03T11:53:57.253Z,38470.88
2023-05-03T11:56:23.979Z,38291.41
2023-05-03T11:58:57.576Z,38279.44
2023-05-03T12:01:26.277Z,38289.41
2023-05-03T12:04:05.474Z,38335.28
2023-05-03T12:06:35.194Z,38241.56
2023-05-03T12:09:03.875Z,38438.97
2023-05-03T12:11:32.746Z,38472.88
2023-05-03T12:14:02.169Z,38347.25
2023-05-03T12:16:46.600Z,38205.66
2023-05-03T12:19:24.191Z,38213.63
2023-05-03T12:22:04.874Z,38231.59
2023-05-03T12:24:39.381Z,38149.81
2023-05-03T12:27:08.196Z,38203.66
2023-05-03T12:29:35.686Z,38139.84
2023-05-03T12:32:04.173Z,38088.00
2023-05-03T12:34:35.815Z,38058.09
2023-05-03T12:37:04.646Z,38109.94
2023-05-03T12:39:33.069Z,38036.16
2023-05-03T12:44:33.067Z,38024.19
2023-05-03T12:47:01.601Z,37952.41
2023-05-03T12:49:28.613Z,37904.56
2023-05-03T12:52:18.779Z,37886.59
2023-05-03T12:54:48.784Z,37920.50
2023-05-03T12:57:22.640Z,37864.69
2023-05-03T12:59:53.937Z,37852.72
2023-05-03T13:05:11.529Z,37796.88
2023-05-03T13:07:43.152Z,37729.09
2023-05-03T13:12:40.468Z,37729.09
2023-05-03T13:15:08.335Z,37699.19
2023-05-03T13:17:34.956Z,37667.28
2023-05-03T13:20:01.422Z,37693.19
2023-05-03T13:22:28.599Z,37637.38
2023-05-03T13:24:55.977Z,37685.22
2023-05-03T13:27:22.924Z,37563.59
2023-05-03T13:29:49.762Z,37525.72
2023-05-03T13:32:16.656Z,37585.53
2023-05-03T13:34:43.330Z,37509.78
2023-05-03T13:37:11.467Z,37521.75
2023-05-03T13:39:38.137Z,37473.88
2023-05-03T13:42:04.638Z,37410.09
2023-05-03T13:44:31.134Z,37430.03
2023-05-03T13:46:57.557Z,37374.22
2023-05-03T13:49:25.458Z,37304.44
2023-05-03T13:51:51.868Z,37386.16
2023-05-03T13:54:18.412Z,37390.16
2023-05-03T13:56:44.892Z,37318.38
2023-05-03T13:59:13.671Z,37334.34
2023-05-03T14:01:41.082Z,37242.63
2023-05-03T14:04:07.621Z,37172.84
2023-05-03T14:06:34.401Z,37246.63
2023-05-03T14:09:01.703Z,37174.84
2023-05-03T14:11:30.421Z,37174.84
2023-05-03T14:13:58.489Z,37146.94
2023-05-03T14:16:40.007Z,37184.81
2023-05-03T14:19:07.832Z,37148.94
2023-05-03T14:21:34.690Z,37095.09
2023-05-03T14:24:01.590Z,37083.16
2023-05-03T14:26:29.376Z,37059.22
2023-05-03T14:28:56.118Z,37023.34
2023-05-03T14:31:22.681Z,36995.44
2023-05-03T14:33:49.158Z,36947.59
2023-05-03T14:36:15.909Z,36965.53
2023-05-03T14:38:42.461Z,36987.47
2023-05-03T14:41:09.199Z,36995.44
2023-05-03T14:43:35.667Z,36983.47
2023-05-03T14:46:02.664Z,36947.59
2023-05-03T14:48:29.070Z,36983.47
2023-05-03T14:50:56.389Z,36939.63
2023-05-03T14:53:23.805Z,36909.72
2023-05-03T14:55:50.338Z,36859.88
2023-05-03T14:58:17.196Z,36867.84
2023-05-03T15:00:43.794Z,36893.78
2023-05-03T15:03:12.190Z,36835.97
2023-05-03T15:05:43.805Z,36833.97
2023-05-03T15:08:10.644Z,36853.91
2023-05-03T15:10:41.331Z,36873.84
2023-05-03T15:13:09.494Z,36883.81
2023-05-03T15:15:37.107Z,36855.91
2023-05-03T15:18:03.725Z,36835.97
2023-05-03T15:20:30.156Z,36798.09
2023-05-03T15:22:56.635Z,36855.91
2023-05-03T15:25:23.068Z,36816.03
2023-05-03T15:27:51.245Z,36808.06
2023-05-03T15:30:18.022Z,36794.09
2023-05-03T15:32:44.776Z,36768.19
2023-05-03T15:35:11.877Z,36740.28
2023-05-03T15:37:38.416Z,36784.13
2023-05-03T15:40:05.838Z,36804.06
2023-05-03T15:42:32.423Z,36762.22
2023-05-03T15:44:58.903Z,36718.34
2023-05-03T15:47:26.379Z,36768.19
2023-05-03T15:49:52.960Z,36722.34
2023-05-03T15:52:19.430Z,36688.47
2023-05-03T15:54:46.576Z,36696.44
2023-05-03T15:57:13.755Z,36728.31
2023-05-03T15:59:40.644Z,36700.41
2023-05-03T16:02:07.502Z,36668.53
2023-05-03T16:04:37.000Z,36682.47
2023-05-03T16:07:04.504Z,36684.47
2023-05-03T16:09:31.265Z,36638.63
2023-05-03T16:11:59.021Z,36632.66
2023-05-03T16:14:26.345Z,36646.59
2023-05-03T16:16:54.150Z,36612.72
2023-05-03T16:19:21.421Z,36656.56
2023-05-03T16:21:48.166Z,36632.66
2023-05-03T16:24:14.866Z,36612.72
2023-05-03T16:26:41.618Z,36610.72
2023-05-03T16:29:08.371Z,36596.78
2023-05-03T16:31:34.880Z,36640.63
2023-05-03T16:34:01.792Z,36636.63
2023-05-03T16:36:28.229Z,36756.22
2023-05-03T16:38:54.745Z,36652.59
2023-05-03T16:41:21.292Z,36612.72
2023-05-03T16:43:47.955Z,36624.69
2023-05-03T16:46:14.482Z,36624.69
2023-05-03T16:48:41.344Z,36608.72
2023-05-03T16:51:07.787Z,36576.84
2023-05-03T16:53:34.283Z,36610.72
2023-05-03T16:56:00.897Z,36616.72
2023-05-03T16:58:27.351Z,36632.66
2023-05-03T17:00:53.847Z,36610.72
2023-05-03T17:03:20.433Z,36604.75
2023-05-03T17:05:46.964Z,36574.84
2023-05-03T17:08:13.580Z,36592.78
2023-05-03T17:10:40.246Z,36558.91
2023-05-03T17:13:09.333Z,36612.72
2023-05-03T17:15:36.999Z,36636.63
2023-05-03T17:18:04.890Z,36540.97
2023-05-03T17:20:32.808Z,36604.75
2023-05-03T17:22:59.275Z,36634.66
2023-05-03T17:25:25.915Z,36624.69
2023-05-03T17:27:52.822Z,36604.75
2023-05-03T17:30:21.138Z,36628.66
2023-05-03T17:32:48.350Z,36612.72
2023-05-03T17:35:14.905Z,36624.69
2023-05-03T17:37:41.595Z,36600.75
2023-05-03T17:40:08.745Z,36580.81
2023-05-03T17:42:35.434Z,36586.81
2023-05-03T17:45:02.732Z,36608.72
2023-05-03T17:47:29.294Z,36584.81
2023-05-03T17:49:56.520Z,36572.84
2023-05-03T17:52:23.322Z,36556.91
2023-05-03T17:54:52.601Z,36580.81
2023-05-03T17:57:21.909Z,36558.91
2023-05-03T17:59:48.689Z,36574.84
2023-05-03T18:02:15.239Z,36568.88
2023-05-03T18:04:41.671Z,36586.81
2023-05-03T18:07:08.233Z,36602.75
2023-05-03T18:09:34.667Z,36584.81
2023-05-03T18:12:03.344Z,36570.88
2023-05-03T18:14:30.230Z,36560.91
2023-05-03T18:16:56.640Z,36546.94
2023-05-03T18:19:23.742Z,36564.88
2023-05-03T18:21:50.318Z,36540.97
2023-05-03T18:24:16.891Z,36533.00
2023-05-03T18:26:43.320Z,36525.03
2023-05-03T18:29:09.967Z,36536.97
2023-05-03T18:31:36.527Z,36548.94
2023-05-03T18:34:03.111Z,36535.00
2023-05-03T18:36:29.567Z,36525.03
2023-05-03T18:38:56.585Z,36517.03
2023-05-03T18:41:23.049Z,36556.91
2023-05-03T18:43:50.350Z,36521.03
2023-05-03T18:46:18.568Z,36540.97
2023-05-03T18:48:45.936Z,36493.13
2023-05-03T18:51:12.540Z,36497.13
2023-05-03T18:53:38.990Z,36505.09
2023-05-03T18:56:05.527Z,36521.03
2023-05-03T18:58:32.481Z,36511.06
2023-05-03T19:01:00.206Z,36525.03
2023-05-03T19:03:30.210Z,36509.06
2023-05-03T19:06:07.487Z,36495.13
2023-05-03T19:08:34.454Z,36503.09
2023-05-03T19:11:11.131Z,36483.16
2023-05-03T19:13:37.596Z,36481.16
2023-05-03T19:16:04.221Z,36483.16
2023-05-03T19:18:31.809Z,36497.13
2023-05-03T19:20:59.356Z,36455.25
2023-05-03T19:23:25.916Z,36473.19
2023-05-03T19:25:52.282Z,36505.09
2023-05-03T19:28:18.784Z,36495.13
2023-05-03T19:30:45.591Z,36481.16
2023-05-03T19:33:12.232Z,36473.19
2023-05-03T19:35:42.434Z,36461.25
2023-05-03T19:38:08.924Z,36455.25
2023-05-03T19:40:36.568Z,36477.19
2023-05-03T19:43:03.002Z,36479.19
2023-05-03T19:45:29.980Z,36491.13
2023-05-03T19:47:56.578Z,36465.22
2023-05-03T19:50:23.094Z,36457.25
2023-05-03T19:52:53.371Z,36459.25
2023-05-03T19:55:20.288Z,36439.31
2023-05-03T19:57:47.081Z,36465.22
2023-05-03T20:00:16.304Z,36441.31
2023-05-03T20:02:42.970Z,36457.25
2023-05-03T20:05:09.537Z,36455.25
2023-05-03T20:07:36.035Z,36453.28
2023-05-03T20:10:02.818Z,36429.34
2023-05-03T20:12:29.628Z,36433.34
2023-05-03T20:14:56.044Z,36449.28
2023-05-03T20:17:22.485Z,36449.28
2023-05-03T20:19:49.908Z,36441.31
2023-05-03T20:22:17.019Z,36417.38
2023-05-03T20:24:43.669Z,36425.38
2023-05-03T20:27:10.224Z,36453.28
2023-05-03T20:29:36.598Z,36425.38
2023-05-03T20:32:03.590Z,36425.38
2023-05-03T20:34:30.239Z,36425.38
2023-05-03T20:36:57.109Z,36413.41
2023-05-03T20:39:23.988Z,36423.38
2023-05-03T20:41:50.456Z,36429.34
2023-05-03T20:44:16.874Z,36417.38
2023-05-03T20:46:43.273Z,36441.31
2023-05-03T20:49:10.372Z,36407.44
2023-05-03T20:51:37.471Z,36417.38
2023-05-03T20:54:04.466Z,36421.38
2023-05-03T20:56:32.398Z,36413.41
2023-05-03T20:58:58.834Z,36407.44
2023-05-03T21:01:25.290Z,36427.34
2023-05-03T21:03:51.979Z,36389.50
2023-05-03T21:06:18.474Z,36377.53
2023-05-03T21:08:44.888Z,36425.38
2023-05-03T21:11:11.399Z,36415.41
2023-05-03T21:13:38.387Z,36421.38
2023-05-03T21:16:07.713Z,36417.38
2023-05-03T21:18:34.324Z,36409.41
2023-05-03T21:21:00.815Z,36397.47
2023-05-03T21:23:27.324Z,36395.47
2023-05-03T21:25:56.194Z,36379.53
2023-05-03T21:28:23.297Z,36377.53
2023-05-03T21:30:49.826Z,36383.50
2023-05-03T21:33:16.648Z,36409.41
2023-05-03T21:35:43.465Z,36399.47
2023-05-03T21:38:09.914Z,36391.47
2023-05-03T21:40:36.700Z,36377.53
2023-05-03T21:43:04.212Z,36395.47
2023-05-03T21:45:30.625Z,36411.41
2023-05-03T21:47:57.082Z,36417.38
2023-05-03T21:50:23.675Z,36385.50
2023-05-03T21:52:50.095Z,36365.56
2023-05-03T21:55:16.501Z,36383.50
2023-05-03T21:57:43.268Z,36383.50
2023-05-03T22:00:15.059Z,36365.56
2023-05-03T22:02:41.631Z,36373.53
2023-05-03T22:05:09.074Z,36403.44
2023-05-03T22:07:35.541Z,36341.66
2023-05-03T22:10:02.558Z,36371.56
2023-05-03T22:12:29.437Z,36341.66
2023-05-03T22:14:55.909Z,36387.50
2023-05-03T22:17:22.807Z,36333.69
2023-05-03T22:19:49.258Z,36381.53
2023-05-03T22:22:15.969Z,36357.59
2023-05-03T22:24:42.435Z,36357.59
2023-05-03T22:27:08.829Z,36365.56
2023-05-03T22:29:35.230Z,36347.63
2023-05-03T22:32:01.738Z,36353.63
2023-05-03T22:34:28.215Z,36361.59
2023-05-03T22:36:54.683Z,36359.59
2023-05-03T22:39:21.137Z,36375.53
2023-05-03T22:41:47.510Z,36361.59
2023-05-03T22:44:14.196Z,36331.69
2023-05-03T22:46:40.583Z,36363.56
2023-05-03T22:49:07.348Z,36353.63
2023-05-03T22:51:33.795Z,36373.53
2023-05-03T22:54:00.436Z,36361.59
2023-05-03T22:56:27.259Z,36345.66
2023-05-03T22:58:53.947Z,36373.53
2023-05-03T23:01:20.616Z,36337.66
2023-05-03T23:03:47.176Z,36373.53
2023-05-03T23:06:14.351Z,36355.59
2023-05-03T23:08:41.121Z,36349.63
2023-05-03T23:11:07.515Z,36345.66
2023-05-03T23:13:34.063Z,36375.53
2023-05-03T23:16:01.323Z,36345.66
2023-05-03T23:18:28.028Z,36341.66
2023-05-03T23:20:54.420Z,36387.50
2023-05-03T23:23:20.944Z,36349.63
2023-05-03T23:25:47.368Z,36373.53
2023-05-03T23:28:13.794Z,36363.56
2023-05-03T23:30:45.145Z,36367.56
2023-05-03T23:33:12.389Z,36343.66
2023-05-03T23:35:40.786Z,36325.72
2023-05-03T23:38:07.249Z,36357.59
2023-05-03T23:40:33.808Z,36349.63
2023-05-03T23:43:00.191Z,36369.56
2023-05-03T23:45:27.225Z,36373.53
2023-05-03T23:47:54.281Z,36349.63
2023-05-03T23:50:20.989Z,36381.53
2023-05-03T23:52:47.676Z,36391.47
2023-05-03T23:55:14.174Z,36361.59
2023-05-03T23:57:40.833Z,36377.53
